Langeloth, Pennsylvania
Current Conditions -  °F | °C
As of 5:51 AM on Thursday 18 Dec 2014 (Local Time) from KPIT Reporting Station
Light Snow Light Snow  
Wind Chill: 19°   Ceiling: 2200
Heat Index: 28°   Visibility: 9mi
Dew Point: 19°   Wind: 9mph
Humidity: 69%   Direction: 270°W
Pressure: 30.17"   Gusts: NA
Location:  40.36°N, 80.41°W
Report Text: KPIT 181051Z 27008KT 9SM -SN OVC022 M02/M07 A3017 RMK AO2 SLP237 P0000 T10221072
Loading
Personal Weather Stations






























Interactive Weather Map New forecast layout! Learn more

10-Day Weather Forecast

Advertisements
Track Severe Weather on mobile